createdAt,value
2022-08-03T00:00:33.158Z,1.77
2022-08-03T00:03:01.035Z,2.20
2022-08-03T00:05:28.904Z,2.20
2022-08-03T00:07:56.728Z,1.93
2022-08-03T00:10:26.547Z,1.97
2022-08-03T00:12:54.568Z,2.30
2022-08-03T00:15:22.431Z,2.07
2022-08-03T00:17:53.080Z,1.63
2022-08-03T00:20:22.405Z,1.93
2022-08-03T00:22:50.266Z,2.10
2022-08-03T00:25:18.511Z,2.53
2022-08-03T00:27:48.292Z,2.03
2022-08-03T00:30:16.979Z,1.83
2022-08-03T00:32:45.615Z,2.00
2022-08-03T00:35:32.484Z,2.17
2022-08-03T00:38:01.670Z,1.63
2022-08-03T00:40:29.922Z,1.93
2022-08-03T00:43:00.804Z,2.07
2022-08-03T00:45:30.055Z,2.10
2022-08-03T00:47:58.953Z,1.90
2022-08-03T00:50:28.939Z,2.23
2022-08-03T00:52:58.893Z,1.90
2022-08-03T00:55:27.700Z,1.73
2022-08-03T00:57:56.098Z,2.03
2022-08-03T01:00:28.020Z,1.70
2022-08-03T01:02:55.999Z,2.20
2022-08-03T01:05:24.105Z,1.93
2022-08-03T01:08:09.142Z,2.00
2022-08-03T01:10:48.450Z,2.07
2022-08-03T01:14:01.661Z,2.13
2022-08-03T01:16:20.020Z,2.10
2022-08-03T01:18:55.887Z,1.67
2022-08-03T01:21:29.865Z,2.00
2022-08-03T01:24:06.429Z,1.50
2022-08-03T01:27:01.059Z,2.00
2022-08-03T01:29:54.211Z,2.10
2022-08-03T01:33:00.190Z,1.80
2022-08-03T01:35:16.443Z,1.60
2022-08-03T01:37:53.547Z,1.93
2022-08-03T01:40:23.097Z,1.80
2022-08-03T01:42:52.638Z,1.90
2022-08-03T01:45:23.231Z,1.80
2022-08-03T01:47:52.562Z,2.00
2022-08-03T01:50:24.663Z,1.93
2022-08-03T01:52:54.045Z,1.70
2022-08-03T01:55:24.448Z,2.00
2022-08-03T01:58:05.892Z,1.87
2022-08-03T02:00:38.263Z,1.97
2022-08-03T02:03:08.115Z,1.73
2022-08-03T02:05:37.283Z,1.97
2022-08-03T02:08:07.739Z,1.90
2022-08-03T02:10:38.653Z,1.70
2022-08-03T02:13:09.759Z,2.13
2022-08-03T02:15:40.261Z,2.10
2022-08-03T02:18:10.808Z,2.13
2022-08-03T02:20:41.447Z,1.87
2022-08-03T02:23:10.022Z,1.80
2022-08-03T02:25:45.630Z,2.13
2022-08-03T02:28:18.293Z,1.90
2022-08-03T02:30:54.652Z,1.70
2022-08-03T02:33:26.295Z,2.17
2022-08-03T02:35:55.193Z,1.80
2022-08-03T02:38:27.177Z,1.87
2022-08-03T02:40:58.444Z,1.77
2022-08-03T02:43:27.936Z,1.87
2022-08-03T02:46:10.679Z,1.73
2022-08-03T02:48:39.835Z,1.70
2022-08-03T02:51:08.160Z,1.70
2022-08-03T02:53:37.025Z,2.03
2022-08-03T02:56:06.437Z,2.07
2022-08-03T02:58:34.906Z,1.90
2022-08-03T03:01:04.351Z,2.30
2022-08-03T03:03:37.249Z,2.20
2022-08-03T03:06:14.433Z,2.20
2022-08-03T03:08:43.389Z,1.93
2022-08-03T03:11:12.443Z,1.67
2022-08-03T03:13:42.328Z,1.97
2022-08-03T03:16:10.980Z,2.10
2022-08-03T03:18:41.282Z,1.83
2022-08-03T03:21:10.600Z,1.90
2022-08-03T03:23:39.780Z,1.83
2022-08-03T03:26:08.389Z,2.00
2022-08-03T03:28:37.999Z,2.40
2022-08-03T03:31:07.068Z,2.40
2022-08-03T03:33:35.515Z,1.90
2022-08-03T03:36:06.399Z,2.17
2022-08-03T03:38:34.618Z,1.87
2022-08-03T03:41:02.931Z,2.40
2022-08-03T03:43:31.055Z,1.80
2022-08-03T03:45:59.684Z,2.30
2022-08-03T03:48:28.058Z,1.90
2022-08-03T03:50:57.248Z,1.80
2022-08-03T03:53:26.744Z,2.13
2022-08-03T03:55:57.883Z,2.10
2022-08-03T03:58:30.556Z,2.37
2022-08-03T04:00:58.586Z,1.90
2022-08-03T04:03:26.468Z,1.90
2022-08-03T04:06:11.843Z,2.40
2022-08-03T04:08:59.099Z,2.20
2022-08-03T04:11:31.906Z,2.20
2022-08-03T04:14:04.237Z,2.50
2022-08-03T04:16:36.063Z,1.73
2022-08-03T04:19:08.886Z,2.10
2022-08-03T04:21:41.542Z,2.60
2022-08-03T04:24:13.757Z,2.30
2022-08-03T04:26:44.154Z,2.30
2022-08-03T04:29:13.932Z,2.40
2022-08-03T04:31:44.294Z,2.40
2022-08-03T04:34:12.337Z,2.20
2022-08-03T04:36:50.185Z,2.20
2022-08-03T04:39:25.258Z,2.30
2022-08-03T04:42:07.644Z,2.10
2022-08-03T04:44:45.285Z,2.60
2022-08-03T04:47:13.120Z,2.27
2022-08-03T04:49:41.553Z,2.23
2022-08-03T04:52:10.902Z,2.40
2022-08-03T04:54:50.252Z,2.07
2022-08-03T04:57:23.119Z,2.37
2022-08-03T04:59:58.167Z,2.37
2022-08-03T05:02:30.512Z,2.93
2022-08-03T05:04:58.836Z,1.93
2022-08-03T05:07:35.547Z,2.20
2022-08-03T05:10:14.833Z,2.00
2022-08-03T05:12:44.923Z,2.40
2022-08-03T05:15:13.032Z,2.40
2022-08-03T05:17:41.094Z,2.20
2022-08-03T05:20:10.243Z,2.37
2022-08-03T05:22:38.087Z,2.10
2022-08-03T05:25:08.061Z,2.23
2022-08-03T05:27:36.109Z,2.67
2022-08-03T05:30:31.431Z,2.53
2022-08-03T05:32:53.366Z,2.30
2022-08-03T05:36:01.895Z,3.27
2022-08-03T05:38:09.219Z,4.33
2022-08-03T05:40:38.733Z,5.33
2022-08-03T05:43:14.663Z,3.60
2022-08-03T05:45:42.574Z,3.30
2022-08-03T05:48:10.410Z,3.03
2022-08-03T05:50:42.711Z,2.90
2022-08-03T05:53:10.806Z,2.30
2022-08-03T05:55:40.018Z,2.40
2022-08-03T05:58:07.832Z,2.50
2022-08-03T06:00:35.820Z,2.90
2022-08-03T06:03:03.667Z,3.03
2022-08-03T06:05:31.715Z,3.23
2022-08-03T06:07:59.621Z,3.20
2022-08-03T06:10:37.095Z,2.80
2022-08-03T06:13:07.405Z,2.80
2022-08-03T06:15:35.446Z,2.60
2022-08-03T06:18:03.272Z,2.37
2022-08-03T06:20:31.248Z,2.53
2022-08-03T06:23:01.253Z,2.33
2022-08-03T06:25:29.411Z,2.80
2022-08-03T06:27:57.442Z,2.70
2022-08-03T06:30:26.918Z,2.47
2022-08-03T06:32:54.882Z,2.80
2022-08-03T06:35:22.872Z,2.40
2022-08-03T06:37:52.873Z,2.80
2022-08-03T06:40:29.017Z,3.30
2022-08-03T06:42:56.949Z,2.87
2022-08-03T06:45:26.487Z,3.13
2022-08-03T06:48:04.241Z,2.77
2022-08-03T06:50:32.424Z,2.90
2022-08-03T06:53:00.390Z,3.27
2022-08-03T06:55:28.768Z,2.80
2022-08-03T06:57:59.858Z,3.13
2022-08-03T07:00:32.807Z,2.80
2022-08-03T07:03:00.644Z,3.07
2022-08-03T07:05:28.826Z,3.10
2022-08-03T07:07:59.112Z,3.70
2022-08-03T07:10:27.649Z,2.97
2022-08-03T07:12:56.497Z,3.43
2022-08-03T07:15:54.095Z,3.17
2022-08-03T07:18:14.100Z,3.20
2022-08-03T07:20:42.208Z,3.20
2022-08-03T07:23:10.477Z,3.27
2022-08-03T07:25:47.167Z,3.07
2022-08-03T07:28:15.208Z,2.73
2022-08-03T07:30:43.043Z,2.90
2022-08-03T07:33:10.910Z,2.80
2022-08-03T07:35:40.151Z,3.40
2022-08-03T07:38:08.028Z,3.10
2022-08-03T07:40:35.844Z,3.07
2022-08-03T07:43:03.841Z,3.00
2022-08-03T07:45:33.543Z,3.20
2022-08-03T07:48:01.470Z,3.50
2022-08-03T07:50:29.392Z,3.30
2022-08-03T07:52:59.723Z,3.20
2022-08-03T07:55:28.703Z,3.50
2022-08-03T07:58:04.882Z,3.23
2022-08-03T08:00:33.350Z,3.63
2022-08-03T08:03:01.341Z,3.17
2022-08-03T08:05:29.717Z,3.27
2022-08-03T08:07:58.991Z,2.83
2022-08-03T08:10:26.985Z,2.83
2022-08-03T08:12:54.925Z,3.33
2022-08-03T08:15:22.853Z,2.73
2022-08-03T08:17:53.499Z,3.30
2022-08-03T08:20:27.923Z,3.30
2022-08-03T08:23:01.397Z,3.03
2022-08-03T08:25:30.200Z,3.20
2022-08-03T08:28:30.081Z,3.30
2022-08-03T08:30:46.636Z,3.00
2022-08-03T08:33:23.418Z,3.27
2022-08-03T08:35:52.980Z,3.17
2022-08-03T08:38:22.529Z,3.10
2022-08-03T08:40:50.623Z,3.33
2022-08-03T08:43:18.605Z,3.47
2022-08-03T08:45:47.831Z,3.20
2022-08-03T08:48:16.643Z,3.70
2022-08-03T08:50:45.060Z,3.53
2022-08-03T08:53:17.537Z,4.13
2022-08-03T08:55:59.694Z,3.50
2022-08-03T08:58:31.304Z,3.50
2022-08-03T09:00:59.428Z,3.27
2022-08-03T09:03:29.977Z,3.53
2022-08-03T09:05:59.857Z,3.63
2022-08-03T09:08:27.753Z,3.17
2022-08-03T09:10:56.972Z,3.50
2022-08-03T09:13:24.847Z,3.23
2022-08-03T09:16:10.870Z,3.10
2022-08-03T09:18:38.950Z,3.37
2022-08-03T09:21:34.860Z,3.47
2022-08-03T09:24:07.071Z,3.37
2022-08-03T09:26:39.925Z,2.97
2022-08-03T09:29:14.441Z,3.13
2022-08-03T09:31:45.333Z,2.80
2022-08-03T09:34:15.968Z,3.40
2022-08-03T09:36:46.365Z,3.43
2022-08-03T09:39:16.226Z,3.50
2022-08-03T09:41:46.705Z,3.37
2022-08-03T09:44:25.448Z,3.53
2022-08-03T09:46:56.024Z,3.20
2022-08-03T09:49:24.562Z,3.20
2022-08-03T09:52:31.606Z,3.60
2022-08-03T09:54:41.522Z,3.20
2022-08-03T09:57:22.906Z,3.87
2022-08-03T09:59:53.921Z,3.23
2022-08-03T10:02:31.050Z,4.10
2022-08-03T10:04:58.885Z,3.30
2022-08-03T10:07:27.341Z,3.53
2022-08-03T10:09:56.723Z,4.00
2022-08-03T10:12:27.063Z,3.43
2022-08-03T10:14:55.722Z,3.60
2022-08-03T10:17:24.563Z,3.40
2022-08-03T10:19:52.466Z,4.10
2022-08-03T10:22:24.384Z,3.77
2022-08-03T10:24:56.754Z,3.70
2022-08-03T10:27:27.839Z,3.80
2022-08-03T10:29:57.523Z,3.10
2022-08-03T10:32:30.130Z,3.43
2022-08-03T10:35:19.700Z,3.97
2022-08-03T10:37:57.272Z,3.50
2022-08-03T10:43:21.473Z,4.00
2022-08-03T10:45:50.054Z,3.87
2022-08-03T10:48:19.275Z,3.40
2022-08-03T10:50:47.660Z,4.00
2022-08-03T10:53:18.654Z,3.43
2022-08-03T10:56:05.505Z,3.80
2022-08-03T10:58:57.985Z,3.30
2022-08-03T11:01:59.503Z,2.93
2022-08-03T11:04:30.686Z,3.60
2022-08-03T11:07:21.310Z,3.40
2022-08-03T11:09:51.272Z,3.50
2022-08-03T11:12:30.160Z,3.10
2022-08-03T11:15:02.967Z,3.33
2022-08-03T11:17:31.439Z,3.37
2022-08-03T11:19:59.365Z,3.30
2022-08-03T11:22:50.976Z,3.30
2022-08-03T11:25:54.345Z,3.70
2022-08-03T11:28:29.221Z,3.70
2022-08-03T11:31:49.796Z,3.70
2022-08-03T11:34:18.888Z,3.00
2022-08-03T11:37:28.565Z,3.97
2022-08-03T11:39:57.934Z,3.60
2022-08-03T11:42:40.117Z,3.40
2022-08-03T11:45:10.383Z,3.30
2022-08-03T11:47:50.214Z,3.13
2022-08-03T11:50:21.165Z,4.00
2022-08-03T11:52:50.563Z,2.93
2022-08-03T11:55:21.821Z,3.57
2022-08-03T11:59:10.668Z,3.40
2022-08-03T12:00:38.149Z,4.63
2022-08-03T12:03:09.876Z,3.27
2022-08-03T12:05:51.638Z,2.93
2022-08-03T12:08:32.053Z,3.00
2022-08-03T12:11:01.528Z,3.20
2022-08-03T12:14:33.127Z,3.00
2022-08-03T12:16:28.599Z,3.10
2022-08-03T12:19:01.127Z,3.77
2022-08-03T12:21:29.822Z,3.40
2022-08-03T12:24:00.118Z,3.80
2022-08-03T12:26:29.424Z,3.40
2022-08-03T12:28:57.442Z,3.43
2022-08-03T12:31:25.733Z,2.80
2022-08-03T12:33:59.506Z,3.90
2022-08-03T12:36:28.757Z,3.10
2022-08-03T12:38:57.995Z,3.40
2022-08-03T12:41:31.550Z,3.93
2022-08-03T12:43:59.724Z,4.00
2022-08-03T12:46:32.641Z,3.23
2022-08-03T12:49:07.756Z,3.70
2022-08-03T12:51:37.354Z,3.73
2022-08-03T12:54:06.164Z,3.57
2022-08-03T12:56:34.085Z,3.50
2022-08-03T12:59:02.016Z,3.57
2022-08-03T13:01:38.236Z,3.10
2022-08-03T13:04:33.236Z,3.47
2022-08-03T13:07:03.426Z,3.03
2022-08-03T13:09:41.513Z,3.10
2022-08-03T13:12:11.276Z,3.13
2022-08-03T13:14:39.169Z,2.90
2022-08-03T13:17:07.869Z,2.83
2022-08-03T13:19:38.393Z,3.43
2022-08-03T13:22:13.021Z,2.63
2022-08-03T13:24:41.434Z,3.00
2022-08-03T13:28:04.864Z,3.20
2022-08-03T13:29:58.409Z,2.83
2022-08-03T13:32:26.333Z,3.10
2022-08-03T13:34:55.491Z,2.57
2022-08-03T13:37:23.633Z,2.30
2022-08-03T13:39:59.558Z,2.60
2022-08-03T13:42:30.047Z,2.23
2022-08-03T13:44:58.094Z,2.77
2022-08-03T13:47:26.252Z,2.30
2022-08-03T13:50:01.032Z,2.73
2022-08-03T13:52:31.224Z,2.40
2022-08-03T13:54:59.817Z,2.37
2022-08-03T13:58:03.677Z,1.93
2022-08-03T14:00:27.921Z,1.50
2022-08-03T14:03:09.180Z,1.80
2022-08-03T14:05:41.923Z,1.83
2022-08-03T14:08:10.342Z,1.90
2022-08-03T14:10:40.219Z,2.20
2022-08-03T14:13:08.552Z,2.00
2022-08-03T14:15:37.845Z,1.93
2022-08-03T14:18:06.616Z,1.87
2022-08-03T14:20:38.481Z,1.70
2022-08-03T14:23:18.214Z,1.70
2022-08-03T14:25:51.897Z,1.90
2022-08-03T14:28:23.475Z,1.93
2022-08-03T14:30:52.080Z,1.70
2022-08-03T14:33:20.234Z,1.70
2022-08-03T14:35:48.364Z,1.70
2022-08-03T14:38:18.328Z,2.00
2022-08-03T14:40:46.291Z,1.87
2022-08-03T14:43:14.379Z,1.90
2022-08-03T14:45:42.672Z,1.73
2022-08-03T14:50:34.600Z,2.10
2022-08-03T14:51:00.879Z,2.10
2022-08-03T14:53:30.125Z,1.90
2022-08-03T14:55:59.249Z,1.70
2022-08-03T14:58:27.600Z,1.83
2022-08-03T15:00:56.725Z,2.00
2022-08-03T15:03:25.636Z,2.30
2022-08-03T15:05:54.881Z,2.00
2022-08-03T15:08:23.444Z,1.87
2022-08-03T15:10:52.854Z,1.90
2022-08-03T15:13:21.427Z,1.90
2022-08-03T15:15:51.638Z,1.80
2022-08-03T15:18:20.095Z,1.80
2022-08-03T15:20:49.445Z,1.20
2022-08-03T15:23:18.147Z,1.20
2022-08-03T15:26:06.446Z,1.50
2022-08-03T15:28:37.513Z,1.67
2022-08-03T15:31:05.832Z,1.77
2022-08-03T15:33:33.672Z,1.53
2022-08-03T15:36:03.554Z,1.50
2022-08-03T15:38:31.469Z,1.50
2022-08-03T15:40:59.429Z,1.60
2022-08-03T15:43:27.272Z,1.57
2022-08-03T15:46:27.765Z,1.90
2022-08-03T15:48:44.284Z,1.77
2022-08-03T15:51:12.409Z,1.90
2022-08-03T15:53:40.289Z,1.90
2022-08-03T15:56:13.240Z,2.27
2022-08-03T15:59:09.487Z,2.10
2022-08-03T16:01:34.555Z,2.57
2022-08-03T16:04:02.534Z,2.60
2022-08-03T16:06:35.956Z,2.47
2022-08-03T16:09:23.471Z,2.53
2022-08-03T16:11:54.586Z,2.10
2022-08-03T16:14:34.224Z,2.70
2022-08-03T16:17:07.276Z,2.63
2022-08-03T16:19:35.609Z,2.83
2022-08-03T16:22:03.597Z,2.80
2022-08-03T16:24:31.970Z,2.50
2022-08-03T16:27:00.727Z,2.73
2022-08-03T16:29:29.310Z,3.33
2022-08-03T16:31:57.187Z,3.03
2022-08-03T16:34:26.552Z,2.60
2022-08-03T16:36:54.610Z,2.93
2022-08-03T16:39:22.537Z,2.50
2022-08-03T16:41:53.635Z,2.70
2022-08-03T16:44:29.624Z,2.60
2022-08-03T16:46:57.472Z,2.80
2022-08-03T16:49:54.323Z,3.10
2022-08-03T16:52:16.820Z,2.83
2022-08-03T16:54:52.646Z,3.10
2022-08-03T16:57:29.956Z,3.03
2022-08-03T17:00:11.700Z,2.70
2022-08-03T17:02:48.024Z,2.33
2022-08-03T17:05:17.677Z,2.43
2022-08-03T17:07:50.633Z,2.80
2022-08-03T17:10:27.042Z,2.67
2022-08-03T17:12:55.490Z,3.00
2022-08-03T17:15:38.284Z,2.83
2022-08-03T17:18:17.668Z,2.53
2022-08-03T17:20:50.773Z,2.77
2022-08-03T17:23:35.831Z,2.63
2022-08-03T17:26:09.759Z,2.77
2022-08-03T17:28:50.197Z,2.70
2022-08-03T17:31:31.509Z,2.50
2022-08-03T17:34:04.485Z,2.63
2022-08-03T17:37:02.592Z,3.03
2022-08-03T17:39:48.481Z,2.57
2022-08-03T17:42:30.769Z,3.00
2022-08-03T17:45:02.491Z,3.27
2022-08-03T17:47:42.838Z,2.90
2022-08-03T17:50:23.566Z,2.83
2022-08-03T17:53:07.429Z,2.33
2022-08-03T17:55:57.227Z,2.90
2022-08-03T17:58:41.305Z,3.00
2022-08-03T18:02:00.400Z,3.27
2022-08-03T18:04:30.426Z,2.83
2022-08-03T18:07:00.383Z,2.90
2022-08-03T18:10:03.731Z,3.13
2022-08-03T18:12:41.582Z,3.00
2022-08-03T18:15:21.947Z,2.97
2022-08-03T18:17:55.521Z,2.83
2022-08-03T18:20:40.880Z,2.80
2022-08-03T18:23:10.959Z,3.10
2022-08-03T18:25:58.165Z,2.73
2022-08-03T18:28:27.558Z,2.73
2022-08-03T18:30:57.569Z,2.77
2022-08-03T18:34:16.448Z,3.13
2022-08-03T18:36:21.667Z,3.33
2022-08-03T18:38:59.358Z,3.07
2022-08-03T18:41:32.189Z,3.30
2022-08-03T18:44:08.915Z,3.70
2022-08-03T18:46:48.757Z,3.30
2022-08-03T18:49:30.246Z,3.87
2022-08-03T18:52:12.467Z,3.43
2022-08-03T18:55:01.147Z,2.80
2022-08-03T18:57:46.402Z,3.37
2022-08-03T19:00:17.006Z,3.70
2022-08-03T19:02:50.257Z,3.23
2022-08-03T19:05:21.424Z,3.40
2022-08-03T19:07:59.997Z,2.90
2022-08-03T19:10:32.382Z,3.20
2022-08-03T19:13:05.260Z,3.00
2022-08-03T19:15:50.975Z,2.90
2022-08-03T19:18:21.327Z,3.30
2022-08-03T19:20:53.244Z,3.50
2022-08-03T19:23:25.931Z,2.80
2022-08-03T19:26:00.097Z,3.20
2022-08-03T19:28:31.003Z,2.90
2022-08-03T19:31:02.547Z,3.90
2022-08-03T19:33:57.550Z,7.83
2022-08-03T19:36:26.569Z,28.30
2022-08-03T19:38:57.299Z,17.27
2022-08-03T19:41:31.218Z,5.07
2022-08-03T19:44:19.885Z,4.20
2022-08-03T19:46:53.302Z,4.20
2022-08-03T19:49:57.017Z,3.50
2022-08-03T19:52:16.180Z,3.63
2022-08-03T19:54:53.069Z,3.63
2022-08-03T19:57:25.141Z,3.73
2022-08-03T19:59:55.692Z,3.83
2022-08-03T20:02:27.025Z,3.30
2022-08-03T20:04:56.782Z,3.73
2022-08-03T20:07:26.111Z,3.30
2022-08-03T20:09:56.537Z,3.20
2022-08-03T20:12:27.457Z,3.47
2022-08-03T20:14:58.295Z,4.27
2022-08-03T20:17:55.179Z,3.80
2022-08-03T20:20:15.480Z,3.73
2022-08-03T20:22:48.065Z,3.80
2022-08-03T20:25:21.098Z,3.43
2022-08-03T20:28:06.840Z,3.90
2022-08-03T20:30:43.310Z,4.10
2022-08-03T20:33:11.303Z,3.60
2022-08-03T20:35:41.965Z,3.43
2022-08-03T20:38:13.708Z,3.53
2022-08-03T20:40:41.677Z,3.57
2022-08-03T20:43:09.589Z,4.07
2022-08-03T20:45:59.368Z,4.00
2022-08-03T20:48:28.368Z,4.27
2022-08-03T20:50:56.935Z,3.60
2022-08-03T20:53:57.243Z,4.00
2022-08-03T20:56:15.023Z,3.90
2022-08-03T20:58:50.670Z,4.03
2022-08-03T21:04:11.990Z,4.07
2022-08-03T21:06:53.096Z,3.67
2022-08-03T21:09:25.144Z,3.37
2022-08-03T21:12:15.324Z,3.60
2022-08-03T21:13:13.458Z,3.90
2022-08-03T21:14:53.304Z,4.10
2022-08-03T21:17:38.428Z,3.30
2022-08-03T21:20:11.846Z,3.60
2022-08-03T21:22:43.416Z,3.70
2022-08-03T21:25:14.304Z,3.90
2022-08-03T21:27:42.736Z,3.70
2022-08-03T21:30:12.895Z,3.70
2022-08-03T21:32:45.528Z,4.10
2022-08-03T21:35:16.154Z,3.70
2022-08-03T21:37:45.444Z,3.77
2022-08-03T21:40:16.534Z,3.43
2022-08-03T21:42:45.918Z,3.67
2022-08-03T21:45:17.562Z,3.47
2022-08-03T21:47:48.475Z,3.40
2022-08-03T21:50:18.683Z,3.37
2022-08-03T21:52:50.546Z,3.60
2022-08-03T21:55:20.509Z,3.13
2022-08-03T21:57:54.000Z,3.33
2022-08-03T22:00:23.969Z,3.23
2022-08-03T22:02:55.585Z,3.53
2022-08-03T22:05:42.599Z,3.30
2022-08-03T22:08:13.815Z,3.67
2022-08-03T22:10:44.144Z,3.30
2022-08-03T22:13:13.518Z,4.00
2022-08-03T22:15:41.740Z,3.50
2022-08-03T22:18:09.768Z,3.20
2022-08-03T22:20:39.084Z,3.70
2022-08-03T22:23:08.628Z,3.03
2022-08-03T22:25:40.191Z,3.57
2022-08-03T22:28:10.135Z,3.33
2022-08-03T22:30:38.759Z,3.40
2022-08-03T22:33:11.616Z,3.37
2022-08-03T22:35:44.462Z,4.00
2022-08-03T22:38:16.547Z,3.13
2022-08-03T22:40:44.825Z,3.67
2022-08-03T22:43:12.889Z,3.40
2022-08-03T22:46:06.845Z,4.03
2022-08-03T22:48:35.353Z,3.83
2022-08-03T22:51:10.141Z,3.73
2022-08-03T22:53:39.162Z,3.30
2022-08-03T22:56:07.909Z,3.53
2022-08-03T22:58:35.849Z,3.60
2022-08-03T23:01:06.726Z,3.43
2022-08-03T23:03:59.216Z,4.03
2022-08-03T23:06:27.978Z,3.80
2022-08-03T23:08:56.171Z,3.40
2022-08-03T23:11:26.501Z,3.47
2022-08-03T23:13:57.535Z,3.50
2022-08-03T23:16:28.644Z,3.67
2022-08-03T23:18:58.874Z,3.50
2022-08-03T23:22:00.766Z,3.43
2022-08-03T23:24:29.530Z,3.50
2022-08-03T23:26:58.732Z,3.40
2022-08-03T23:29:29.463Z,3.73
2022-08-03T23:31:58.373Z,3.40
2022-08-03T23:34:44.749Z,2.90
2022-08-03T23:37:15.932Z,3.30
2022-08-03T23:39:46.837Z,3.60
2022-08-03T23:42:17.783Z,3.37
2022-08-03T23:44:46.485Z,4.00
2022-08-03T23:47:15.005Z,3.40
2022-08-03T23:49:43.036Z,3.10
2022-08-03T23:52:16.464Z,3.90
2022-08-03T23:54:54.137Z,3.40
2022-08-03T23:57:33.603Z,3.30
